createdAt,value
2018-12-19T00:01:23.224Z,17.13
2018-12-19T00:03:52.834Z,16.23
2018-12-19T00:06:22.473Z,15.77
2018-12-19T00:08:50.086Z,16.97
2018-12-19T00:11:17.692Z,13.83
2018-12-19T00:13:45.298Z,16.77
2018-12-19T00:16:12.867Z,16.10
2018-12-19T00:18:40.668Z,18.33
2018-12-19T00:21:08.217Z,16.20
2018-12-19T00:23:35.747Z,19.67
2018-12-19T00:26:03.379Z,14.40
2018-12-19T00:28:32.958Z,14.23
2018-12-19T00:31:02.515Z,14.43
2018-12-19T00:33:32.389Z,15.90
2018-12-19T00:36:02.030Z,16.80
2018-12-19T00:38:29.675Z,17.97
2018-12-19T00:40:57.236Z,14.60
2018-12-19T00:43:24.800Z,18.17
2018-12-19T00:45:52.359Z,12.33
2018-12-19T00:48:20.073Z,14.30
2018-12-19T00:50:47.593Z,16.53
2018-12-19T00:53:15.160Z,14.03
2018-12-19T00:55:42.693Z,13.80
2018-12-19T00:58:11.343Z,14.03
2018-12-19T01:00:39.027Z,14.50
2018-12-19T01:03:06.758Z,16.43
2018-12-19T01:05:34.636Z,15.33
2018-12-19T01:08:02.270Z,16.30
2018-12-19T01:10:30.216Z,14.27
2018-12-19T01:12:57.922Z,15.50
2018-12-19T01:15:26.527Z,14.70
2018-12-19T01:17:54.369Z,13.83
2018-12-19T01:20:22.058Z,11.27
2018-12-19T01:22:49.628Z,14.27
2018-12-19T01:25:17.383Z,12.83
2018-12-19T01:27:44.931Z,15.63
2018-12-19T01:30:12.927Z,11.90
2018-12-19T01:32:40.526Z,15.47
2018-12-19T01:35:08.207Z,12.63
2018-12-19T01:37:35.974Z,14.13
2018-12-19T01:40:04.545Z,12.97
2018-12-19T01:42:32.312Z,15.67
2018-12-19T01:45:00.613Z,14.23
2018-12-19T01:47:28.267Z,17.37
2018-12-19T01:49:56.047Z,14.57
2018-12-19T01:52:23.563Z,16.17
2018-12-19T01:54:51.065Z,12.23
2018-12-19T01:57:18.691Z,19.23
2018-12-19T01:59:46.351Z,15.47
2018-12-19T02:02:14.023Z,14.07
2018-12-19T02:04:41.604Z,15.57
2018-12-19T02:07:09.908Z,17.20
2018-12-19T02:09:37.517Z,19.40
2018-12-19T02:12:05.161Z,17.03
2018-12-19T02:14:32.732Z,15.40
2018-12-19T02:17:00.396Z,16.97
2018-12-19T02:19:27.950Z,16.20
2018-12-19T02:21:55.709Z,19.03
2018-12-19T02:24:23.606Z,17.63
2018-12-19T02:26:51.273Z,17.70
2018-12-19T02:29:18.995Z,16.20
2018-12-19T02:31:46.689Z,15.53
2018-12-19T02:34:14.674Z,16.10
2018-12-19T02:36:42.351Z,17.63
2018-12-19T02:39:10.095Z,16.87
2018-12-19T02:41:37.745Z,15.10
2018-12-19T02:44:05.275Z,16.80
2018-12-19T02:46:32.872Z,15.73
2018-12-19T02:49:00.537Z,16.50
2018-12-19T02:51:28.215Z,17.80
2018-12-19T02:53:55.777Z,17.80
2018-12-19T02:56:23.263Z,16.27
2018-12-19T02:58:50.770Z,15.13
2018-12-19T03:01:18.566Z,16.47
2018-12-19T03:03:46.210Z,16.83
2018-12-19T03:06:13.752Z,14.70
2018-12-19T03:08:41.330Z,18.13
2018-12-19T03:11:10.139Z,14.50
2018-12-19T03:13:37.938Z,17.83
2018-12-19T03:16:05.512Z,16.57
2018-12-19T03:18:33.188Z,17.10
2018-12-19T03:21:00.793Z,19.50
2018-12-19T03:23:28.388Z,15.20
2018-12-19T03:25:55.932Z,21.10
2018-12-19T03:28:23.576Z,13.60
2018-12-19T03:30:53.337Z,17.50
2018-12-19T03:33:22.665Z,17.10
2018-12-19T03:35:50.216Z,15.33
2018-12-19T03:38:24.164Z,16.30
2018-12-19T03:40:51.676Z,14.93
2018-12-19T03:43:19.373Z,14.87
2018-12-19T03:45:46.905Z,14.43
2018-12-19T03:48:20.434Z,14.27
2018-12-19T03:50:47.951Z,14.70
2018-12-19T03:53:15.539Z,16.73
2018-12-19T03:55:43.443Z,12.80
2018-12-19T03:58:11.069Z,15.63
2018-12-19T04:00:38.624Z,14.37
2018-12-19T04:03:06.430Z,13.70
2018-12-19T04:05:34.122Z,15.23
2018-12-19T04:08:01.636Z,13.27
2018-12-19T04:10:29.307Z,13.53
2018-12-19T04:12:56.874Z,15.10
2018-12-19T04:15:24.412Z,12.87
2018-12-19T04:17:52.102Z,14.33
2018-12-19T04:20:19.609Z,16.20
2018-12-19T04:22:47.125Z,15.03
2018-12-19T04:25:14.711Z,14.90
2018-12-19T04:27:42.338Z,15.00
2018-12-19T04:30:09.922Z,15.17
2018-12-19T04:32:37.948Z,15.30
2018-12-19T04:35:05.616Z,17.47
2018-12-19T04:37:33.159Z,15.20
2018-12-19T04:40:05.389Z,17.50
2018-12-19T04:42:30.359Z,14.20
2018-12-19T04:45:00.789Z,17.20
2018-12-19T04:47:28.703Z,15.53
2018-12-19T04:49:56.398Z,15.90
2018-12-19T04:52:24.029Z,16.90
2018-12-19T04:54:51.578Z,14.47
2018-12-19T04:57:19.019Z,16.40
2018-12-19T04:59:46.504Z,14.87
2018-12-19T05:02:14.060Z,16.43
2018-12-19T05:04:41.591Z,16.77
2018-12-19T05:07:09.260Z,14.40
2018-12-19T05:09:36.805Z,15.93
2018-12-19T05:12:04.522Z,19.80
2018-12-19T05:14:32.505Z,16.20
2018-12-19T05:17:00.047Z,15.47
2018-12-19T05:19:27.573Z,20.33
2018-12-19T05:21:55.229Z,19.97
2018-12-19T05:24:22.993Z,25.27
2018-12-19T05:26:51.067Z,30.33
2018-12-19T05:29:18.612Z,30.00
2018-12-19T05:31:46.209Z,27.00
2018-12-19T05:34:13.752Z,29.80
2018-12-19T05:36:41.318Z,26.47
2018-12-19T05:39:09.169Z,24.03
2018-12-19T05:41:36.887Z,19.50
2018-12-19T05:44:04.513Z,15.50
2018-12-19T05:46:32.078Z,18.03
2018-12-19T05:48:59.677Z,18.67
2018-12-19T05:51:27.271Z,17.63
2018-12-19T05:53:55.320Z,17.37
2018-12-19T05:56:22.975Z,15.27
2018-12-19T05:58:50.493Z,20.40
2018-12-19T06:01:19.222Z,16.80
2018-12-19T06:03:48.868Z,16.87
2018-12-19T06:06:16.502Z,19.77
2018-12-19T06:08:44.074Z,19.37
2018-12-19T06:11:11.875Z,25.37
2018-12-19T06:13:39.447Z,21.73
2018-12-19T06:16:06.946Z,22.23
2018-12-19T06:18:34.520Z,20.00
2018-12-19T06:21:01.946Z,22.43
2018-12-19T06:23:29.786Z,22.97
2018-12-19T06:25:57.487Z,24.23
2018-12-19T06:28:24.949Z,31.30
2018-12-19T06:30:52.551Z,24.47
2018-12-19T06:33:20.146Z,29.23
2018-12-19T06:35:47.840Z,24.93
2018-12-19T06:38:15.522Z,23.73
2018-12-19T06:40:43.084Z,27.27
2018-12-19T06:43:10.743Z,22.03
2018-12-19T06:45:38.411Z,24.17
2018-12-19T06:48:05.940Z,25.50
2018-12-19T06:50:33.643Z,26.23
2018-12-19T06:53:01.210Z,25.00
2018-12-19T06:55:28.796Z,24.07
2018-12-19T06:57:56.293Z,20.80
2018-12-19T07:00:23.944Z,21.53
2018-12-19T07:02:51.530Z,21.00
2018-12-19T07:05:19.034Z,23.90
2018-12-19T07:07:46.522Z,23.33
2018-12-19T07:10:14.155Z,23.87
2018-12-19T07:12:41.723Z,30.90
2018-12-19T07:15:10.115Z,30.90
2018-12-19T07:17:37.667Z,27.50
2018-12-19T07:20:05.509Z,28.00
2018-12-19T07:22:33.168Z,21.77
2018-12-19T07:25:00.721Z,25.37
2018-12-19T07:27:28.350Z,26.57
2018-12-19T07:29:56.039Z,28.23
2018-12-19T07:32:23.660Z,26.43
2018-12-19T07:34:51.138Z,25.77
2018-12-19T07:37:18.698Z,25.33
2018-12-19T07:39:46.270Z,23.77
2018-12-19T07:42:13.877Z,27.47
2018-12-19T07:44:41.439Z,26.43
2018-12-19T07:47:08.995Z,23.53
2018-12-19T07:49:37.000Z,27.10
2018-12-19T07:52:04.912Z,21.17
2018-12-19T07:54:32.496Z,21.63
2018-12-19T07:57:00.058Z,23.03
2018-12-19T07:59:27.765Z,25.50
2018-12-19T08:01:55.356Z,26.43
2018-12-19T08:04:23.107Z,37.03
2018-12-19T08:06:50.702Z,33.43
2018-12-19T08:09:18.249Z,33.20
2018-12-19T08:11:45.782Z,31.63
2018-12-19T08:14:13.407Z,30.40
2018-12-19T08:16:41.132Z,34.87
2018-12-19T08:19:08.773Z,29.97
2018-12-19T08:21:36.353Z,31.07
2018-12-19T08:24:03.918Z,25.63
2018-12-19T08:26:31.624Z,24.30
2018-12-19T08:28:59.391Z,30.00
2018-12-19T08:31:26.991Z,25.87
2018-12-19T08:33:54.517Z,40.33
2018-12-19T08:36:22.129Z,23.17
2018-12-19T08:38:49.648Z,25.97
2018-12-19T08:41:17.315Z,23.77
2018-12-19T08:43:44.934Z,23.20
2018-12-19T08:46:14.703Z,27.20
2018-12-19T08:48:42.413Z,21.80
2018-12-19T08:51:09.940Z,25.47
2018-12-19T08:53:37.754Z,25.37
2018-12-19T08:56:05.457Z,25.53
2018-12-19T08:58:33.170Z,23.57
2018-12-19T09:01:00.744Z,29.57
2018-12-19T09:03:28.375Z,20.93
2018-12-19T09:05:56.069Z,35.93
2018-12-19T09:08:23.710Z,21.77
2018-12-19T09:10:52.254Z,38.20
2018-12-19T09:13:19.781Z,28.60
2018-12-19T09:15:50.892Z,24.63
2018-12-19T09:18:19.789Z,24.77
2018-12-19T09:20:47.629Z,38.90
2018-12-19T09:23:15.738Z,23.50
2018-12-19T09:25:43.507Z,29.27
2018-12-19T09:28:11.161Z,25.47
2018-12-19T09:30:38.740Z,23.63
2018-12-19T09:33:06.317Z,31.07
2018-12-19T09:35:35.186Z,22.70
2018-12-19T09:38:02.913Z,23.70
2018-12-19T09:40:30.766Z,26.07
2018-12-19T09:42:58.310Z,25.60
2018-12-19T09:45:26.010Z,22.33
2018-12-19T09:47:53.956Z,18.20
2018-12-19T09:50:21.562Z,18.70
2018-12-19T09:52:49.041Z,20.23
2018-12-19T09:55:16.627Z,19.17
2018-12-19T09:57:44.211Z,17.60
2018-12-19T10:00:17.543Z,18.97
2018-12-19T10:02:45.057Z,20.13
2018-12-19T10:05:13.075Z,18.10
2018-12-19T10:07:40.980Z,20.17
2018-12-19T10:10:08.720Z,18.63
2018-12-19T10:12:36.305Z,21.80
2018-12-19T10:15:04.149Z,21.53
2018-12-19T10:17:32.498Z,25.43
2018-12-19T10:20:00.269Z,18.83
2018-12-19T10:22:30.954Z,22.43
2018-12-19T10:25:04.628Z,24.60
2018-12-19T10:27:32.226Z,21.73
2018-12-19T10:30:00.038Z,25.67
2018-12-19T10:32:32.254Z,32.27
2018-12-19T10:34:59.817Z,23.20
2018-12-19T10:37:27.410Z,23.07
2018-12-19T10:39:55.282Z,28.23
2018-12-19T10:42:22.860Z,30.37
2018-12-19T10:44:50.551Z,36.83
2018-12-19T10:47:18.239Z,29.20
2018-12-19T10:49:45.817Z,27.83
2018-12-19T10:52:13.420Z,24.20
2018-12-19T10:54:41.206Z,31.70
2018-12-19T10:57:08.864Z,29.27
2018-12-19T10:59:36.744Z,29.80
2018-12-19T11:02:04.396Z,24.60
2018-12-19T11:04:34.164Z,29.17
2018-12-19T11:07:01.807Z,25.97
2018-12-19T11:09:29.404Z,27.23
2018-12-19T11:11:57.489Z,26.03
2018-12-19T11:14:25.318Z,27.50
2018-12-19T11:16:52.828Z,30.73
2018-12-19T11:19:20.487Z,35.77
2018-12-19T11:21:48.135Z,29.27
2018-12-19T11:24:16.035Z,35.10
2018-12-19T11:26:43.990Z,30.67
2018-12-19T11:29:12.738Z,28.23
2018-12-19T11:31:40.625Z,30.07
2018-12-19T11:34:08.233Z,33.00
2018-12-19T11:36:36.184Z,29.23
2018-12-19T11:39:06.717Z,30.70
2018-12-19T11:41:39.102Z,28.93
2018-12-19T11:44:06.026Z,27.87
2018-12-19T11:46:33.606Z,26.53
2018-12-19T11:49:01.142Z,25.87
2018-12-19T11:51:28.716Z,27.47
2018-12-19T11:53:56.425Z,30.27
2018-12-19T11:56:23.974Z,28.57
2018-12-19T11:58:51.706Z,28.03
2018-12-19T12:01:19.375Z,28.43
2018-12-19T12:03:47.056Z,33.00
2018-12-19T12:06:16.598Z,28.17
2018-12-19T12:08:44.180Z,25.67
2018-12-19T12:11:11.697Z,37.13
2018-12-19T12:13:39.344Z,29.83
2018-12-19T12:16:06.888Z,25.00
2018-12-19T12:18:34.708Z,48.40
2018-12-19T12:21:02.336Z,28.03
2018-12-19T12:23:30.052Z,35.13
2018-12-19T12:25:57.750Z,22.83
2018-12-19T12:28:25.639Z,26.17
2018-12-19T12:30:53.358Z,24.67
2018-12-19T12:33:20.889Z,21.23
2018-12-19T12:35:48.567Z,24.40
2018-12-19T12:38:16.210Z,24.00
2018-12-19T12:40:43.798Z,25.27
2018-12-19T12:43:11.335Z,20.77
2018-12-19T12:45:38.900Z,24.47
2018-12-19T12:48:06.701Z,24.20
2018-12-19T12:50:34.269Z,26.07
2018-12-19T12:53:02.196Z,28.17
2018-12-19T12:55:30.931Z,25.77
2018-12-19T12:57:58.563Z,17.83
2018-12-19T13:00:26.126Z,22.70
2018-12-19T13:02:53.774Z,21.67
2018-12-19T13:05:23.561Z,23.93
2018-12-19T13:07:51.397Z,22.10
2018-12-19T13:10:19.086Z,24.37
2018-12-19T13:12:47.004Z,20.57
2018-12-19T13:15:19.066Z,20.83
2018-12-19T13:17:47.085Z,23.67
2018-12-19T13:20:14.713Z,28.57
2018-12-19T13:22:42.300Z,29.73
2018-12-19T13:25:09.787Z,25.23
2018-12-19T13:27:37.371Z,32.53
2018-12-19T13:30:06.973Z,22.90
2018-12-19T13:32:34.527Z,20.77
2018-12-19T13:35:02.169Z,27.73
2018-12-19T13:37:30.008Z,26.30
2018-12-19T13:39:58.460Z,25.33
2018-12-19T13:42:26.351Z,28.27
2018-12-19T13:44:53.922Z,19.10
2018-12-19T13:47:21.535Z,18.10
2018-12-19T13:49:49.052Z,17.73
2018-12-19T13:52:16.859Z,21.17
2018-12-19T13:54:44.492Z,24.70
2018-12-19T13:57:12.122Z,18.37
2018-12-19T13:59:39.756Z,19.67
2018-12-19T14:02:07.519Z,17.40
2018-12-19T14:04:35.334Z,23.80
2018-12-19T14:07:03.005Z,17.27
2018-12-19T14:09:30.611Z,20.50
2018-12-19T14:11:58.810Z,15.80
2018-12-19T14:14:26.340Z,16.57
2018-12-19T14:16:53.909Z,22.00
2018-12-19T14:19:22.111Z,19.63
2018-12-19T14:21:49.922Z,19.83
2018-12-19T14:24:17.618Z,21.87
2018-12-19T14:26:45.249Z,20.73
2018-12-19T14:29:12.818Z,17.33
2018-12-19T14:31:40.399Z,19.40
2018-12-19T14:34:08.188Z,17.23
2018-12-19T14:36:35.817Z,19.50
2018-12-19T14:39:05.381Z,17.70
2018-12-19T14:41:33.959Z,16.13
2018-12-19T14:44:01.516Z,17.77
2018-12-19T14:46:29.046Z,18.43
2018-12-19T14:48:56.528Z,20.87
2018-12-19T14:51:24.601Z,17.73
2018-12-19T14:53:52.349Z,24.33
2018-12-19T14:56:19.949Z,17.77
2018-12-19T14:58:47.413Z,18.23
2018-12-19T15:01:15.010Z,18.93
2018-12-19T15:03:42.606Z,21.47
2018-12-19T15:06:10.176Z,26.37
2018-12-19T15:08:37.956Z,23.20
2018-12-19T15:11:05.514Z,24.53
2018-12-19T15:13:33.818Z,24.17
2018-12-19T15:16:02.020Z,20.73
2018-12-19T15:18:29.997Z,27.77
2018-12-19T15:20:57.658Z,25.93
2018-12-19T15:23:25.235Z,27.53
2018-12-19T15:25:52.845Z,28.97
2018-12-19T15:28:20.436Z,22.77
2018-12-19T15:30:47.929Z,30.30
2018-12-19T15:33:15.483Z,30.40
2018-12-19T15:35:43.064Z,30.03
2018-12-19T15:38:10.602Z,29.63
2018-12-19T15:40:38.099Z,35.73
2018-12-19T15:43:05.672Z,25.87
2018-12-19T15:45:34.424Z,32.23
2018-12-19T15:48:01.953Z,34.00
2018-12-19T15:50:30.574Z,49.47
2018-12-19T15:52:58.428Z,57.23
2018-12-19T15:55:25.998Z,55.27
2018-12-19T15:57:53.535Z,40.97
2018-12-19T16:00:22.186Z,42.93
2018-12-19T16:02:49.747Z,37.97
2018-12-19T16:05:17.301Z,29.17
2018-12-19T16:07:45.118Z,32.13
2018-12-19T16:10:12.615Z,30.33
2018-12-19T16:12:41.397Z,27.33
2018-12-19T16:15:09.196Z,28.37
2018-12-19T16:17:36.907Z,30.80
2018-12-19T16:20:06.329Z,31.10
2018-12-19T16:22:33.968Z,27.07
2018-12-19T16:25:01.470Z,35.10
2018-12-19T16:27:29.170Z,45.57
2018-12-19T16:29:56.826Z,41.70
2018-12-19T16:32:24.359Z,34.73
2018-12-19T16:34:52.096Z,34.43
2018-12-19T16:37:19.722Z,36.03
2018-12-19T16:39:47.347Z,26.10
2018-12-19T16:42:14.802Z,26.93
2018-12-19T16:44:42.780Z,29.53
2018-12-19T16:47:10.317Z,30.57
2018-12-19T16:49:37.870Z,29.00
2018-12-19T16:52:05.434Z,32.30
2018-12-19T16:54:32.994Z,24.43
2018-12-19T16:57:00.596Z,23.87
2018-12-19T16:59:35.111Z,23.73
2018-12-19T17:02:02.807Z,26.03
2018-12-19T17:04:30.980Z,23.33
2018-12-19T17:06:58.492Z,23.87
2018-12-19T17:09:26.202Z,22.40
2018-12-19T17:11:53.771Z,23.53
2018-12-19T17:14:21.590Z,23.27
2018-12-19T17:16:49.344Z,24.50
2018-12-19T17:19:16.853Z,27.40
2018-12-19T17:21:44.636Z,22.70
2018-12-19T17:24:12.167Z,20.73
2018-12-19T17:26:39.784Z,26.30
2018-12-19T17:29:07.441Z,24.20
2018-12-19T17:31:34.978Z,22.57
2018-12-19T17:34:02.426Z,20.70
2018-12-19T17:36:30.053Z,22.57
2018-12-19T17:38:57.562Z,27.17
2018-12-19T17:41:25.146Z,21.33
2018-12-19T17:43:52.664Z,20.20
2018-12-19T17:46:20.326Z,20.43
2018-12-19T17:48:47.916Z,22.53
2018-12-19T17:51:15.437Z,21.30
2018-12-19T17:53:43.017Z,23.07
2018-12-19T17:56:10.570Z,20.13
2018-12-19T17:58:38.194Z,21.00
2018-12-19T18:01:05.861Z,20.90
2018-12-19T18:03:33.619Z,19.23
2018-12-19T18:06:01.106Z,29.00
2018-12-19T18:08:28.634Z,55.37
2018-12-19T18:10:56.183Z,22.97
2018-12-19T18:13:23.839Z,19.80
2018-12-19T18:15:51.384Z,23.57
2018-12-19T18:18:18.884Z,21.17
2018-12-19T18:20:46.402Z,17.00
2018-12-19T18:23:13.947Z,17.27
2018-12-19T18:25:41.572Z,18.57
2018-12-19T18:28:09.117Z,17.20
2018-12-19T18:30:36.698Z,15.47
2018-12-19T18:33:04.346Z,18.57
2018-12-19T18:35:32.023Z,21.93
2018-12-19T18:37:59.587Z,23.80
2018-12-19T18:40:27.110Z,18.97
2018-12-19T18:42:55.127Z,47.40
2018-12-19T18:45:22.637Z,17.23
2018-12-19T18:47:50.134Z,18.57
2018-12-19T18:50:17.714Z,20.90
2018-12-19T18:52:45.215Z,16.57
2018-12-19T18:55:12.889Z,17.30
2018-12-19T18:57:40.636Z,17.13
2018-12-19T19:00:09.055Z,21.30
2018-12-19T19:02:36.713Z,34.83
2018-12-19T19:05:05.129Z,16.93
2018-12-19T19:07:32.834Z,28.77
2018-12-19T19:10:00.472Z,16.80
2018-12-19T19:12:28.154Z,25.83
2018-12-19T19:14:55.731Z,21.87
2018-12-19T19:17:23.229Z,17.20
2018-12-19T19:19:50.836Z,26.27
2018-12-19T19:22:18.420Z,20.33
2018-12-19T19:24:46.042Z,19.70
2018-12-19T19:27:13.841Z,14.33
2018-12-19T19:29:41.376Z,17.10
2018-12-19T19:32:09.016Z,15.90
2018-12-19T19:34:36.538Z,18.30
2018-12-19T19:37:04.084Z,19.13
2018-12-19T19:39:31.731Z,18.80
2018-12-19T19:41:59.276Z,19.87
2018-12-19T19:44:26.833Z,16.00
2018-12-19T19:46:54.389Z,16.07
2018-12-19T19:49:21.895Z,19.53
2018-12-19T19:51:49.428Z,19.07
2018-12-19T19:54:17.268Z,17.57
2018-12-19T19:56:44.822Z,17.10
2018-12-19T19:59:12.462Z,22.90
2018-12-19T20:01:39.987Z,26.57
2018-12-19T20:04:07.595Z,30.13
2018-12-19T20:06:35.216Z,33.60
2018-12-19T20:09:05.082Z,27.10
2018-12-19T20:11:34.683Z,17.23
2018-12-19T20:14:02.238Z,24.67
2018-12-19T20:16:30.507Z,20.13
2018-12-19T20:18:58.157Z,13.17
2018-12-19T20:21:25.843Z,14.00
2018-12-19T20:23:53.391Z,11.93
2018-12-19T20:26:21.027Z,20.33
2018-12-19T20:28:49.809Z,19.93
2018-12-19T20:31:17.500Z,13.97
2018-12-19T20:33:45.358Z,10.00
2018-12-19T20:36:12.943Z,9.67
2018-12-19T20:38:40.495Z,13.37
2018-12-19T20:41:08.021Z,16.10
2018-12-19T20:43:39.944Z,13.60
2018-12-19T20:46:05.462Z,8.87
2018-12-19T20:48:33.116Z,15.50
2018-12-19T20:51:00.633Z,13.17
2018-12-19T20:53:28.189Z,21.80
2018-12-19T20:55:55.942Z,13.50
2018-12-19T20:58:23.701Z,12.93
2018-12-19T21:00:51.359Z,13.70
2018-12-19T21:03:19.176Z,11.47
2018-12-19T21:05:47.046Z,16.13
2018-12-19T21:08:14.587Z,11.07
2018-12-19T21:10:42.229Z,15.63
2018-12-19T21:13:09.826Z,9.83
2018-12-19T21:15:37.359Z,11.83
2018-12-19T21:18:10.494Z,13.93
2018-12-19T21:20:38.042Z,10.20
2018-12-19T21:23:06.006Z,10.63
2018-12-19T21:25:33.633Z,12.30
2018-12-19T21:28:01.311Z,13.63
2018-12-19T21:30:28.962Z,12.63
2018-12-19T21:32:56.623Z,12.23
2018-12-19T21:35:24.312Z,7.47
2018-12-19T21:37:52.009Z,10.83
2018-12-19T21:40:19.739Z,12.10
2018-12-19T21:42:47.407Z,10.73
2018-12-19T21:45:15.024Z,6.97
2018-12-19T21:47:42.717Z,9.57
2018-12-19T21:50:10.250Z,11.77
2018-12-19T21:52:38.026Z,7.40
2018-12-19T21:55:05.602Z,7.17
2018-12-19T21:57:33.250Z,11.27
2018-12-19T22:00:01.241Z,11.00
2018-12-19T22:02:30.035Z,13.23
2018-12-19T22:04:58.113Z,7.37
2018-12-19T22:07:25.900Z,6.00
2018-12-19T22:09:53.817Z,7.20
2018-12-19T22:12:21.421Z,6.17
2018-12-19T22:14:48.927Z,13.63
2018-12-19T22:17:21.986Z,8.67
2018-12-19T22:19:49.920Z,10.20
2018-12-19T22:22:19.606Z,10.63
2018-12-19T22:24:47.823Z,14.07
2018-12-19T22:27:15.836Z,8.53
2018-12-19T22:29:43.415Z,6.37
2018-12-19T22:32:11.118Z,5.77
2018-12-19T22:34:38.811Z,12.47
2018-12-19T22:37:06.340Z,6.67
2018-12-19T22:39:33.912Z,7.17
2018-12-19T22:42:01.563Z,9.23
2018-12-19T22:44:29.167Z,12.50
2018-12-19T22:46:57.001Z,9.37
2018-12-19T22:49:24.616Z,5.57
2018-12-19T22:51:52.126Z,6.10
2018-12-19T22:54:19.734Z,6.83
2018-12-19T22:56:47.439Z,5.93
2018-12-19T22:59:15.081Z,4.90
2018-12-19T23:01:48.468Z,5.87
2018-12-19T23:04:16.186Z,4.77
2018-12-19T23:06:43.867Z,3.90
2018-12-19T23:09:11.663Z,6.83
2018-12-19T23:11:40.794Z,7.37
2018-12-19T23:14:15.178Z,9.33
2018-12-19T23:16:44.181Z,8.50
2018-12-19T23:19:17.932Z,9.93
2018-12-19T23:21:51.711Z,7.17
2018-12-19T23:24:25.297Z,7.63
2018-12-19T23:26:54.994Z,11.23
2018-12-19T23:29:24.529Z,8.80
2018-12-19T23:31:52.544Z,8.97
2018-12-19T23:34:20.202Z,8.67
2018-12-19T23:36:47.997Z,10.10
2018-12-19T23:39:15.741Z,11.27
2018-12-19T23:41:43.475Z,10.30
2018-12-19T23:44:13.333Z,8.67
2018-12-19T23:46:40.954Z,9.67
2018-12-19T23:49:08.725Z,8.63
2018-12-19T23:51:36.477Z,10.83
2018-12-19T23:54:04.172Z,11.93
2018-12-19T23:56:31.783Z,8.23
2018-12-19T23:58:59.582Z,12.97
